Řízení letového provozu České republiky
Letiste: LKLN Aktualizace: 18.12.2018 17:26:07  UTC
 METAR LKLN 18.12. 17:30 ...
METAR LKLN 181730Z AUTO VRB01KT 7000 NCD M00/M00 Q1025=